sensor_id;sensor_type;location;lat;lon;timestamp;P1;durP1;ratioP1;P2;durP2;ratioP2
13801;SDS011;6972;51.518;6.918;2023-06-01T00:01:36;6.30;;;3.75;;
13801;SDS011;6972;51.518;6.918;2023-06-01T00:04:02;11.73;;;4.18;;
13801;SDS011;6972;51.518;6.918;2023-06-01T00:06:28;7.10;;;3.70;;
13801;SDS011;6972;51.518;6.918;2023-06-01T00:08:55;8.25;;;3.40;;
13801;SDS011;6972;51.518;6.918;2023-06-01T00:11:21;6.45;;;4.00;;
13801;SDS011;6972;51.518;6.918;2023-06-01T00:13:47;7.72;;;3.25;;
13801;SDS011;6972;51.518;6.918;2023-06-01T00:16:14;6.22;;;3.80;;
13801;SDS011;6972;51.518;6.918;2023-06-01T00:18:40;7.13;;;3.72;;
13801;SDS011;6972;51.518;6.918;2023-06-01T00:21:06;7.57;;;3.80;;
13801;SDS011;6972;51.518;6.918;2023-06-01T00:23:33;10.10;;;4.10;;
13801;SDS011;6972;51.518;6.918;2023-06-01T00:26:01;10.45;;;3.58;;
13801;SDS011;6972;51.518;6.918;2023-06-01T00:28:27;10.10;;;3.65;;
13801;SDS011;6972;51.518;6.918;2023-06-01T00:30:53;8.77;;;4.13;;
13801;SDS011;6972;51.518;6.918;2023-06-01T00:33:20;9.40;;;4.25;;
13801;SDS011;6972;51.518;6.918;2023-06-01T00:35:46;8.70;;;3.85;;
13801;SDS011;6972;51.518;6.918;2023-06-01T00:38:12;13.75;;;4.35;;
13801;SDS011;6972;51.518;6.918;2023-06-01T00:40:37;9.20;;;4.38;;
13801;SDS011;6972;51.518;6.918;2023-06-01T00:43:03;11.57;;;4.50;;
13801;SDS011;6972;51.518;6.918;2023-06-01T00:45:30;6.95;;;4.28;;
13801;SDS011;6972;51.518;6.918;2023-06-01T00:47:56;11.05;;;4.93;;
13801;SDS011;6972;51.518;6.918;2023-06-01T00:50:22;9.68;;;5.28;;
13801;SDS011;6972;51.518;6.918;2023-06-01T00:52:51;11.60;;;5.00;;
13801;SDS011;6972;51.518;6.918;2023-06-01T00:55:18;13.18;;;4.90;;
13801;SDS011;6972;51.518;6.918;2023-06-01T00:57:46;9.65;;;5.40;;
13801;SDS011;6972;51.518;6.918;2023-06-01T01:00:13;11.10;;;5.15;;
13801;SDS011;6972;51.518;6.918;2023-06-01T01:02:40;7.82;;;4.50;;
13801;SDS011;6972;51.518;6.918;2023-06-01T01:05:09;9.43;;;5.20;;
13801;SDS011;6972;51.518;6.918;2023-06-01T01:15:53;10.25;;;5.57;;
13801;SDS011;6972;51.518;6.918;2023-06-01T01:21:00;10.52;;;5.18;;
13801;SDS011;6972;51.518;6.918;2023-06-01T01:29:14;13.73;;;6.45;;
13801;SDS011;6972;51.518;6.918;2023-06-01T01:31:41;9.68;;;6.43;;
13801;SDS011;6972;51.518;6.918;2023-06-01T01:34:08;12.55;;;6.32;;
13801;SDS011;6972;51.518;6.918;2023-06-01T01:36:35;11.48;;;6.22;;
13801;SDS011;6972;51.518;6.918;2023-06-01T01:39:01;16.08;;;6.40;;
13801;SDS011;6972;51.518;6.918;2023-06-01T01:41:28;9.25;;;6.55;;
13801;SDS011;6972;51.518;6.918;2023-06-01T01:43:54;8.55;;;6.68;;
13801;SDS011;6972;51.518;6.918;2023-06-01T01:46:30;12.73;;;6.97;;
13801;SDS011;6972;51.518;6.918;2023-06-01T01:49:08;15.32;;;7.13;;
13801;SDS011;6972;51.518;6.918;2023-06-01T01:51:40;12.32;;;7.05;;
13801;SDS011;6972;51.518;6.918;2023-06-01T01:54:09;13.85;;;7.35;;
13801;SDS011;6972;51.518;6.918;2023-06-01T01:56:36;16.48;;;7.75;;
13801;SDS011;6972;51.518;6.918;2023-06-01T01:59:03;12.52;;;7.60;;
13801;SDS011;6972;51.518;6.918;2023-06-01T02:01:30;11.85;;;7.15;;
13801;SDS011;6972;51.518;6.918;2023-06-01T02:04:01;18.73;;;8.13;;
13801;SDS011;6972;51.518;6.918;2023-06-01T02:06:27;15.30;;;8.25;;
13801;SDS011;6972;51.518;6.918;2023-06-01T02:08:53;15.68;;;8.30;;
13801;SDS011;6972;51.518;6.918;2023-06-01T02:11:19;18.42;;;8.57;;
13801;SDS011;6972;51.518;6.918;2023-06-01T02:13:45;11.32;;;8.63;;
13801;SDS011;6972;51.518;6.918;2023-06-01T02:16:11;15.43;;;8.35;;
13801;SDS011;6972;51.518;6.918;2023-06-01T02:18:37;14.65;;;8.02;;
13801;SDS011;6972;51.518;6.918;2023-06-01T02:21:04;15.32;;;8.18;;
13801;SDS011;6972;51.518;6.918;2023-06-01T02:23:30;15.90;;;9.50;;
13801;SDS011;6972;51.518;6.918;2023-06-01T02:25:56;13.93;;;8.50;;
13801;SDS011;6972;51.518;6.918;2023-06-01T02:28:22;14.77;;;8.50;;
13801;SDS011;6972;51.518;6.918;2023-06-01T02:30:47;16.33;;;9.18;;
13801;SDS011;6972;51.518;6.918;2023-06-01T02:33:13;20.23;;;9.50;;
13801;SDS011;6972;51.518;6.918;2023-06-01T02:35:40;18.10;;;9.93;;
13801;SDS011;6972;51.518;6.918;2023-06-01T02:38:06;19.90;;;9.80;;
13801;SDS011;6972;51.518;6.918;2023-06-01T02:40:32;21.02;;;10.90;;
13801;SDS011;6972;51.518;6.918;2023-06-01T02:42:58;23.70;;;11.63;;
13801;SDS011;6972;51.518;6.918;2023-06-01T02:45:24;16.80;;;10.83;;
13801;SDS011;6972;51.518;6.918;2023-06-01T02:47:50;29.77;;;14.10;;
13801;SDS011;6972;51.518;6.918;2023-06-01T02:50:16;25.67;;;14.77;;
13801;SDS011;6972;51.518;6.918;2023-06-01T02:52:42;30.80;;;15.77;;
13801;SDS011;6972;51.518;6.918;2023-06-01T02:55:09;29.50;;;16.37;;
13801;SDS011;6972;51.518;6.918;2023-06-01T02:57:35;38.80;;;17.67;;
13801;SDS011;6972;51.518;6.918;2023-06-01T03:00:01;39.07;;;18.33;;
13801;SDS011;6972;51.518;6.918;2023-06-01T03:02:26;34.28;;;18.38;;
13801;SDS011;6972;51.518;6.918;2023-06-01T03:04:52;30.40;;;17.63;;
13801;SDS011;6972;51.518;6.918;2023-06-01T03:07:18;31.97;;;16.07;;
13801;SDS011;6972;51.518;6.918;2023-06-01T03:09:44;35.07;;;18.60;;
13801;SDS011;6972;51.518;6.918;2023-06-01T03:12:10;36.03;;;18.60;;
13801;SDS011;6972;51.518;6.918;2023-06-01T03:14:36;30.23;;;16.97;;
13801;SDS011;6972;51.518;6.918;2023-06-01T03:17:02;38.63;;;17.57;;
13801;SDS011;6972;51.518;6.918;2023-06-01T03:19:27;27.23;;;15.90;;
13801;SDS011;6972;51.518;6.918;2023-06-01T03:21:53;31.87;;;15.63;;
13801;SDS011;6972;51.518;6.918;2023-06-01T03:24:19;28.87;;;15.40;;
13801;SDS011;6972;51.518;6.918;2023-06-01T03:26:46;26.63;;;15.80;;
13801;SDS011;6972;51.518;6.918;2023-06-01T03:29:11;25.30;;;14.97;;
13801;SDS011;6972;51.518;6.918;2023-06-01T03:31:37;28.03;;;15.77;;
13801;SDS011;6972;51.518;6.918;2023-06-01T03:34:03;23.80;;;14.73;;
13801;SDS011;6972;51.518;6.918;2023-06-01T03:36:29;26.00;;;14.83;;
13801;SDS011;6972;51.518;6.918;2023-06-01T03:38:55;28.13;;;15.73;;
13801;SDS011;6972;51.518;6.918;2023-06-01T03:41:20;28.23;;;16.30;;
13801;SDS011;6972;51.518;6.918;2023-06-01T03:43:47;28.95;;;16.70;;
13801;SDS011;6972;51.518;6.918;2023-06-01T03:46:12;32.47;;;19.35;;
13801;SDS011;6972;51.518;6.918;2023-06-01T03:48:38;37.37;;;20.67;;
13801;SDS011;6972;51.518;6.918;2023-06-01T03:51:05;34.90;;;18.23;;
13801;SDS011;6972;51.518;6.918;2023-06-01T03:53:31;33.20;;;18.90;;
13801;SDS011;6972;51.518;6.918;2023-06-01T03:55:57;29.43;;;18.07;;
13801;SDS011;6972;51.518;6.918;2023-06-01T03:58:23;33.13;;;18.83;;
13801;SDS011;6972;51.518;6.918;2023-06-01T04:00:48;29.58;;;19.30;;
13801;SDS011;6972;51.518;6.918;2023-06-01T04:03:14;31.00;;;19.25;;
13801;SDS011;6972;51.518;6.918;2023-06-01T04:05:40;35.65;;;22.10;;
13801;SDS011;6972;51.518;6.918;2023-06-01T04:08:14;33.85;;;22.05;;
13801;SDS011;6972;51.518;6.918;2023-06-01T04:10:41;38.45;;;24.25;;
13801;SDS011;6972;51.518;6.918;2023-06-01T04:13:07;41.33;;;25.92;;
13801;SDS011;6972;51.518;6.918;2023-06-01T04:15:33;42.10;;;26.93;;
13801;SDS011;6972;51.518;6.918;2023-06-01T04:17:59;40.08;;;26.75;;
13801;SDS011;6972;51.518;6.918;2023-06-01T04:20:25;45.50;;;28.83;;
13801;SDS011;6972;51.518;6.918;2023-06-01T04:22:51;48.58;;;28.02;;
13801;SDS011;6972;51.518;6.918;2023-06-01T04:25:17;49.97;;;30.05;;
13801;SDS011;6972;51.518;6.918;2023-06-01T04:27:44;43.13;;;27.85;;
13801;SDS011;6972;51.518;6.918;2023-06-01T04:30:12;43.03;;;26.07;;
13801;SDS011;6972;51.518;6.918;2023-06-01T04:32:38;39.78;;;25.23;;
13801;SDS011;6972;51.518;6.918;2023-06-01T04:35:05;38.60;;;22.97;;
13801;SDS011;6972;51.518;6.918;2023-06-01T04:37:32;35.40;;;24.08;;
13801;SDS011;6972;51.518;6.918;2023-06-01T04:39:59;42.25;;;27.02;;
13801;SDS011;6972;51.518;6.918;2023-06-01T04:42:25;41.50;;;26.85;;
13801;SDS011;6972;51.518;6.918;2023-06-01T04:44:52;45.17;;;28.08;;
13801;SDS011;6972;51.518;6.918;2023-06-01T04:47:18;46.78;;;28.92;;
13801;SDS011;6972;51.518;6.918;2023-06-01T04:49:46;52.70;;;32.13;;
13801;SDS011;6972;51.518;6.918;2023-06-01T04:52:12;46.30;;;29.53;;
13801;SDS011;6972;51.518;6.918;2023-06-01T04:54:38;53.23;;;32.97;;
13801;SDS011;6972;51.518;6.918;2023-06-01T04:57:05;49.50;;;31.70;;
13801;SDS011;6972;51.518;6.918;2023-06-01T04:59:33;51.07;;;30.73;;
13801;SDS011;6972;51.518;6.918;2023-06-01T05:02:00;48.85;;;30.75;;
13801;SDS011;6972;51.518;6.918;2023-06-01T05:04:25;47.57;;;29.70;;
13801;SDS011;6972;51.518;6.918;2023-06-01T05:06:51;51.03;;;29.90;;
13801;SDS011;6972;51.518;6.918;2023-06-01T05:09:17;46.65;;;31.23;;
13801;SDS011;6972;51.518;6.918;2023-06-01T05:11:43;45.70;;;29.85;;
13801;SDS011;6972;51.518;6.918;2023-06-01T05:14:09;44.88;;;28.95;;
13801;SDS011;6972;51.518;6.918;2023-06-01T05:16:35;45.13;;;29.10;;
13801;SDS011;6972;51.518;6.918;2023-06-01T05:19:01;51.72;;;29.88;;
13801;SDS011;6972;51.518;6.918;2023-06-01T05:21:28;50.27;;;30.77;;
13801;SDS011;6972;51.518;6.918;2023-06-01T05:23:56;47.17;;;29.73;;
13801;SDS011;6972;51.518;6.918;2023-06-01T05:26:22;46.85;;;29.55;;
13801;SDS011;6972;51.518;6.918;2023-06-01T05:28:48;47.80;;;30.08;;
13801;SDS011;6972;51.518;6.918;2023-06-01T05:31:14;49.55;;;32.15;;
13801;SDS011;6972;51.518;6.918;2023-06-01T05:33:44;49.35;;;30.50;;
13801;SDS011;6972;51.518;6.918;2023-06-01T05:36:09;45.03;;;31.52;;
13801;SDS011;6972;51.518;6.918;2023-06-01T05:38:35;49.58;;;29.77;;
13801;SDS011;6972;51.518;6.918;2023-06-01T05:41:02;45.85;;;31.42;;
13801;SDS011;6972;51.518;6.918;2023-06-01T05:43:27;46.85;;;31.33;;
13801;SDS011;6972;51.518;6.918;2023-06-01T05:45:53;40.58;;;27.52;;
13801;SDS011;6972;51.518;6.918;2023-06-01T05:48:20;45.30;;;27.42;;
13801;SDS011;6972;51.518;6.918;2023-06-01T05:50:46;41.58;;;26.30;;
13801;SDS011;6972;51.518;6.918;2023-06-01T05:53:11;44.00;;;27.27;;
13801;SDS011;6972;51.518;6.918;2023-06-01T05:55:37;46.03;;;28.27;;
13801;SDS011;6972;51.518;6.918;2023-06-01T05:58:03;46.63;;;26.73;;
13801;SDS011;6972;51.518;6.918;2023-06-01T06:00:29;43.92;;;27.52;;
13801;SDS011;6972;51.518;6.918;2023-06-01T06:02:55;37.95;;;26.73;;
13801;SDS011;6972;51.518;6.918;2023-06-01T06:05:21;40.90;;;26.73;;
13801;SDS011;6972;51.518;6.918;2023-06-01T06:07:47;42.33;;;29.30;;
13801;SDS011;6972;51.518;6.918;2023-06-01T06:10:13;44.75;;;29.85;;
13801;SDS011;6972;51.518;6.918;2023-06-01T06:12:39;42.60;;;29.73;;
13801;SDS011;6972;51.518;6.918;2023-06-01T06:15:05;44.72;;;29.33;;
13801;SDS011;6972;51.518;6.918;2023-06-01T06:17:32;44.08;;;28.58;;
13801;SDS011;6972;51.518;6.918;2023-06-01T06:19:58;42.20;;;27.75;;
13801;SDS011;6972;51.518;6.918;2023-06-01T06:22:24;43.85;;;30.25;;
13801;SDS011;6972;51.518;6.918;2023-06-01T06:24:49;42.83;;;29.17;;
13801;SDS011;6972;51.518;6.918;2023-06-01T06:27:15;39.10;;;28.52;;
13801;SDS011;6972;51.518;6.918;2023-06-01T06:29:41;39.72;;;27.67;;
13801;SDS011;6972;51.518;6.918;2023-06-01T06:32:07;45.42;;;28.10;;
13801;SDS011;6972;51.518;6.918;2023-06-01T06:34:33;41.97;;;28.95;;
13801;SDS011;6972;51.518;6.918;2023-06-01T06:37:03;48.20;;;31.83;;
13801;SDS011;6972;51.518;6.918;2023-06-01T06:39:32;51.22;;;31.02;;
13801;SDS011;6972;51.518;6.918;2023-06-01T06:41:58;47.45;;;31.67;;
13801;SDS011;6972;51.518;6.918;2023-06-01T06:44:26;50.35;;;32.65;;
13801;SDS011;6972;51.518;6.918;2023-06-01T06:46:51;47.67;;;31.70;;
13801;SDS011;6972;51.518;6.918;2023-06-01T06:49:17;52.63;;;30.30;;
13801;SDS011;6972;51.518;6.918;2023-06-01T06:51:43;47.80;;;30.17;;
13801;SDS011;6972;51.518;6.918;2023-06-01T06:54:09;49.42;;;30.88;;
13801;SDS011;6972;51.518;6.918;2023-06-01T06:56:35;53.47;;;32.97;;
13801;SDS011;6972;51.518;6.918;2023-06-01T06:59:01;48.90;;;32.55;;
13801;SDS011;6972;51.518;6.918;2023-06-01T07:01:27;54.70;;;32.42;;
13801;SDS011;6972;51.518;6.918;2023-06-01T07:03:53;44.88;;;30.80;;
13801;SDS011;6972;51.518;6.918;2023-06-01T07:06:20;52.90;;;31.02;;
13801;SDS011;6972;51.518;6.918;2023-06-01T07:08:47;53.28;;;35.65;;
13801;SDS011;6972;51.518;6.918;2023-06-01T07:11:14;50.20;;;31.02;;
13801;SDS011;6972;51.518;6.918;2023-06-01T07:13:42;38.05;;;25.40;;
13801;SDS011;6972;51.518;6.918;2023-06-01T07:16:07;32.80;;;18.80;;
13801;SDS011;6972;51.518;6.918;2023-06-01T07:18:33;25.67;;;17.80;;
13801;SDS011;6972;51.518;6.918;2023-06-01T07:21:00;31.75;;;16.73;;
13801;SDS011;6972;51.518;6.918;2023-06-01T07:23:26;27.40;;;14.98;;
13801;SDS011;6972;51.518;6.918;2023-06-01T07:25:52;23.73;;;14.75;;
13801;SDS011;6972;51.518;6.918;2023-06-01T07:28:18;30.52;;;17.20;;
13801;SDS011;6972;51.518;6.918;2023-06-01T07:30:44;22.88;;;14.55;;
13801;SDS011;6972;51.518;6.918;2023-06-01T07:33:10;18.02;;;13.68;;
13801;SDS011;6972;51.518;6.918;2023-06-01T07:35:36;27.98;;;16.33;;
13801;SDS011;6972;51.518;6.918;2023-06-01T07:38:02;25.65;;;14.30;;
13801;SDS011;6972;51.518;6.918;2023-06-01T07:40:29;26.60;;;15.52;;
13801;SDS011;6972;51.518;6.918;2023-06-01T07:42:55;24.90;;;13.32;;
13801;SDS011;6972;51.518;6.918;2023-06-01T07:45:21;24.73;;;15.90;;
13801;SDS011;6972;51.518;6.918;2023-06-01T07:47:48;25.05;;;16.30;;
13801;SDS011;6972;51.518;6.918;2023-06-01T07:50:15;28.00;;;15.88;;
13801;SDS011;6972;51.518;6.918;2023-06-01T07:52:40;20.70;;;13.88;;
13801;SDS011;6972;51.518;6.918;2023-06-01T07:55:10;20.27;;;11.98;;
13801;SDS011;6972;51.518;6.918;2023-06-01T07:57:36;22.50;;;12.25;;
13801;SDS011;6972;51.518;6.918;2023-06-01T08:00:03;22.02;;;14.07;;
13801;SDS011;6972;51.518;6.918;2023-06-01T08:02:32;26.27;;;13.90;;
13801;SDS011;6972;51.518;6.918;2023-06-01T08:04:58;20.73;;;13.77;;
13801;SDS011;6972;51.518;6.918;2023-06-01T08:07:24;18.30;;;13.18;;
13801;SDS011;6972;51.518;6.918;2023-06-01T08:09:53;19.20;;;12.60;;
13801;SDS011;6972;51.518;6.918;2023-06-01T08:12:19;21.60;;;11.68;;
13801;SDS011;6972;51.518;6.918;2023-06-01T08:14:46;21.48;;;11.15;;
13801;SDS011;6972;51.518;6.918;2023-06-01T08:17:12;15.40;;;10.10;;
13801;SDS011;6972;51.518;6.918;2023-06-01T08:19:39;17.20;;;10.45;;
13801;SDS011;6972;51.518;6.918;2023-06-01T08:22:07;20.23;;;10.85;;
13801;SDS011;6972;51.518;6.918;2023-06-01T08:24:33;26.60;;;11.30;;
13801;SDS011;6972;51.518;6.918;2023-06-01T08:27:00;21.85;;;10.80;;
13801;SDS011;6972;51.518;6.918;2023-06-01T08:29:29;15.98;;;9.77;;
13801;SDS011;6972;51.518;6.918;2023-06-01T08:31:56;17.45;;;10.18;;
13801;SDS011;6972;51.518;6.918;2023-06-01T08:34:24;18.92;;;8.90;;
13801;SDS011;6972;51.518;6.918;2023-06-01T08:36:50;21.40;;;9.35;;
13801;SDS011;6972;51.518;6.918;2023-06-01T08:39:22;14.77;;;8.48;;
13801;SDS011;6972;51.518;6.918;2023-06-01T08:44:32;20.23;;;10.57;;
13801;SDS011;6972;51.518;6.918;2023-06-01T08:47:02;15.13;;;9.82;;
13801;SDS011;6972;51.518;6.918;2023-06-01T08:49:33;19.55;;;8.80;;
13801;SDS011;6972;51.518;6.918;2023-06-01T08:52:02;19.65;;;9.70;;
13801;SDS011;6972;51.518;6.918;2023-06-01T08:54:32;16.92;;;9.88;;
13801;SDS011;6972;51.518;6.918;2023-06-01T08:57:03;23.88;;;10.00;;
13801;SDS011;6972;51.518;6.918;2023-06-01T08:59:33;17.85;;;9.45;;
13801;SDS011;6972;51.518;6.918;2023-06-01T09:01:59;19.48;;;10.32;;
13801;SDS011;6972;51.518;6.918;2023-06-01T09:04:26;15.68;;;9.25;;
13801;SDS011;6972;51.518;6.918;2023-06-01T09:06:52;18.63;;;9.63;;
13801;SDS011;6972;51.518;6.918;2023-06-01T09:09:17;19.08;;;9.23;;
13801;SDS011;6972;51.518;6.918;2023-06-01T09:11:44;19.00;;;9.50;;
13801;SDS011;6972;51.518;6.918;2023-06-01T09:14:23;22.20;;;10.40;;
13801;SDS011;6972;51.518;6.918;2023-06-01T09:16:49;18.00;;;9.30;;
13801;SDS011;6972;51.518;6.918;2023-06-01T09:19:16;19.17;;;9.65;;
13801;SDS011;6972;51.518;6.918;2023-06-01T09:21:57;17.00;;;7.90;;
13801;SDS011;6972;51.518;6.918;2023-06-01T09:24:24;21.83;;;8.50;;
13801;SDS011;6972;51.518;6.918;2023-06-01T09:26:51;15.02;;;8.73;;
13801;SDS011;6972;51.518;6.918;2023-06-01T09:29:24;17.45;;;9.45;;
13801;SDS011;6972;51.518;6.918;2023-06-01T09:31:51;13.93;;;8.13;;
13801;SDS011;6972;51.518;6.918;2023-06-01T09:34:18;17.83;;;8.65;;
13801;SDS011;6972;51.518;6.918;2023-06-01T09:36:49;18.83;;;8.27;;
13801;SDS011;6972;51.518;6.918;2023-06-01T09:39:20;16.17;;;8.60;;
13801;SDS011;6972;51.518;6.918;2023-06-01T09:44:21;16.77;;;9.10;;
13801;SDS011;6972;51.518;6.918;2023-06-01T09:46:57;15.10;;;8.63;;
13801;SDS011;6972;51.518;6.918;2023-06-01T09:49:30;16.73;;;8.60;;
13801;SDS011;6972;51.518;6.918;2023-06-01T09:56:57;12.68;;;7.53;;
13801;SDS011;6972;51.518;6.918;2023-06-01T09:59:24;13.95;;;7.93;;
13801;SDS011;6972;51.518;6.918;2023-06-01T10:01:51;19.38;;;8.15;;
13801;SDS011;6972;51.518;6.918;2023-06-01T10:04:22;18.92;;;8.48;;
13801;SDS011;6972;51.518;6.918;2023-06-01T10:06:50;15.20;;;8.50;;
13801;SDS011;6972;51.518;6.918;2023-06-01T10:09:18;14.35;;;8.65;;
13801;SDS011;6972;51.518;6.918;2023-06-01T10:11:50;22.42;;;9.10;;
13801;SDS011;6972;51.518;6.918;2023-06-01T10:14:18;18.63;;;7.93;;
13801;SDS011;6972;51.518;6.918;2023-06-01T10:16:45;13.45;;;7.80;;
13801;SDS011;6972;51.518;6.918;2023-06-01T10:19:18;16.17;;;7.72;;
13801;SDS011;6972;51.518;6.918;2023-06-01T10:21:45;18.13;;;7.78;;
13801;SDS011;6972;51.518;6.918;2023-06-01T10:24:12;16.52;;;8.25;;
13801;SDS011;6972;51.518;6.918;2023-06-01T10:26:49;18.00;;;7.93;;
13801;SDS011;6972;51.518;6.918;2023-06-01T10:29:19;14.27;;;7.30;;
13801;SDS011;6972;51.518;6.918;2023-06-01T10:31:45;14.52;;;7.18;;
13801;SDS011;6972;51.518;6.918;2023-06-01T10:34:12;12.50;;;7.43;;
13801;SDS011;6972;51.518;6.918;2023-06-01T10:39:22;17.98;;;8.02;;
13801;SDS011;6972;51.518;6.918;2023-06-01T10:41:49;14.57;;;6.90;;
13801;SDS011;6972;51.518;6.918;2023-06-01T10:54:52;16.23;;;8.23;;
13801;SDS011;6972;51.518;6.918;2023-06-01T10:57:27;18.25;;;8.45;;
13801;SDS011;6972;51.518;6.918;2023-06-01T11:00:39;19.00;;;8.73;;
13801;SDS011;6972;51.518;6.918;2023-06-01T11:02:43;14.75;;;8.48;;
13801;SDS011;6972;51.518;6.918;2023-06-01T11:10:57;14.85;;;8.38;;
13801;SDS011;6972;51.518;6.918;2023-06-01T11:13:31;13.68;;;7.82;;
13801;SDS011;6972;51.518;6.918;2023-06-01T11:21:09;17.23;;;6.90;;
13801;SDS011;6972;51.518;6.918;2023-06-01T11:23:37;15.10;;;7.82;;
13801;SDS011;6972;51.518;6.918;2023-06-01T11:26:05;17.23;;;7.50;;
13801;SDS011;6972;51.518;6.918;2023-06-01T11:28:32;15.50;;;7.03;;
13801;SDS011;6972;51.518;6.918;2023-06-01T11:30:59;18.08;;;7.53;;
13801;SDS011;6972;51.518;6.918;2023-06-01T11:33:30;14.43;;;7.53;;
13801;SDS011;6972;51.518;6.918;2023-06-01T11:36:01;11.95;;;6.88;;
13801;SDS011;6972;51.518;6.918;2023-06-01T11:38:40;14.30;;;7.15;;
13801;SDS011;6972;51.518;6.918;2023-06-01T11:41:07;14.15;;;7.03;;
13801;SDS011;6972;51.518;6.918;2023-06-01T11:43:34;12.60;;;7.38;;
13801;SDS011;6972;51.518;6.918;2023-06-01T11:46:07;12.80;;;7.03;;
13801;SDS011;6972;51.518;6.918;2023-06-01T11:48:35;11.95;;;5.88;;
13801;SDS011;6972;51.518;6.918;2023-06-01T11:51:01;14.80;;;7.53;;
13801;SDS011;6972;51.518;6.918;2023-06-01T11:53:28;18.02;;;6.90;;
13801;SDS011;6972;51.518;6.918;2023-06-01T11:55:57;15.95;;;7.10;;
13801;SDS011;6972;51.518;6.918;2023-06-01T11:58:23;9.55;;;6.60;;
13801;SDS011;6972;51.518;6.918;2023-06-01T12:00:53;13.60;;;6.93;;
13801;SDS011;6972;51.518;6.918;2023-06-01T12:03:19;19.73;;;7.88;;
13801;SDS011;6972;51.518;6.918;2023-06-01T12:05:45;21.58;;;7.97;;
13801;SDS011;6972;51.518;6.918;2023-06-01T12:08:15;16.73;;;7.28;;
13801;SDS011;6972;51.518;6.918;2023-06-01T12:10:45;15.23;;;7.65;;
13801;SDS011;6972;51.518;6.918;2023-06-01T12:13:15;16.70;;;6.00;;
13801;SDS011;6972;51.518;6.918;2023-06-01T12:15:43;13.20;;;7.25;;
13801;SDS011;6972;51.518;6.918;2023-06-01T12:18:09;15.43;;;7.20;;
13801;SDS011;6972;51.518;6.918;2023-06-01T12:23:02;16.83;;;6.68;;
13801;SDS011;6972;51.518;6.918;2023-06-01T12:25:51;15.88;;;6.45;;
13801;SDS011;6972;51.518;6.918;2023-06-01T12:28:18;14.38;;;6.97;;
13801;SDS011;6972;51.518;6.918;2023-06-01T12:30:44;12.00;;;6.68;;
13801;SDS011;6972;51.518;6.918;2023-06-01T12:35:59;16.25;;;6.72;;
13801;SDS011;6972;51.518;6.918;2023-06-01T12:38:25;11.68;;;6.63;;
13801;SDS011;6972;51.518;6.918;2023-06-01T12:41:07;10.90;;;6.20;;
13801;SDS011;6972;51.518;6.918;2023-06-01T12:43:35;14.50;;;7.43;;
13801;SDS011;6972;51.518;6.918;2023-06-01T12:46:01;9.77;;;6.45;;
13801;SDS011;6972;51.518;6.918;2023-06-01T12:48:31;12.10;;;6.68;;
13801;SDS011;6972;51.518;6.918;2023-06-01T12:50:58;11.95;;;6.60;;
13801;SDS011;6972;51.518;6.918;2023-06-01T12:53:24;12.25;;;7.03;;
13801;SDS011;6972;51.518;6.918;2023-06-01T12:55:50;12.45;;;6.85;;
13801;SDS011;6972;51.518;6.918;2023-06-01T12:58:16;15.68;;;7.47;;
13801;SDS011;6972;51.518;6.918;2023-06-01T13:00:42;19.00;;;6.72;;
13801;SDS011;6972;51.518;6.918;2023-06-01T13:03:08;10.40;;;6.28;;
13801;SDS011;6972;51.518;6.918;2023-06-01T13:05:34;12.00;;;7.13;;
13801;SDS011;6972;51.518;6.918;2023-06-01T13:08:00;9.07;;;6.82;;
13801;SDS011;6972;51.518;6.918;2023-06-01T13:10:27;10.98;;;6.30;;
13801;SDS011;6972;51.518;6.918;2023-06-01T13:12:53;8.50;;;5.82;;
13801;SDS011;6972;51.518;6.918;2023-06-01T13:15:20;12.70;;;6.75;;
13801;SDS011;6972;51.518;6.918;2023-06-01T13:17:46;12.75;;;6.75;;
13801;SDS011;6972;51.518;6.918;2023-06-01T13:20:13;12.52;;;6.65;;
13801;SDS011;6972;51.518;6.918;2023-06-01T13:22:41;10.23;;;6.43;;
13801;SDS011;6972;51.518;6.918;2023-06-01T13:25:08;11.48;;;6.38;;
13801;SDS011;6972;51.518;6.918;2023-06-01T13:27:34;14.40;;;6.10;;
13801;SDS011;6972;51.518;6.918;2023-06-01T13:30:01;11.60;;;6.75;;
13801;SDS011;6972;51.518;6.918;2023-06-01T13:32:29;10.77;;;6.00;;
13801;SDS011;6972;51.518;6.918;2023-06-01T13:34:54;11.75;;;6.80;;
13801;SDS011;6972;51.518;6.918;2023-06-01T13:37:24;12.48;;;6.60;;
13801;SDS011;6972;51.518;6.918;2023-06-01T13:39:51;18.70;;;7.15;;
13801;SDS011;6972;51.518;6.918;2023-06-01T13:42:16;11.55;;;6.85;;
13801;SDS011;6972;51.518;6.918;2023-06-01T13:44:42;14.82;;;6.95;;
13801;SDS011;6972;51.518;6.918;2023-06-01T13:47:11;13.18;;;6.35;;
13801;SDS011;6972;51.518;6.918;2023-06-01T13:49:43;9.43;;;6.22;;
13801;SDS011;6972;51.518;6.918;2023-06-01T13:52:09;11.05;;;5.78;;
13801;SDS011;6972;51.518;6.918;2023-06-01T13:54:36;14.70;;;7.13;;
13801;SDS011;6972;51.518;6.918;2023-06-01T13:57:02;9.88;;;6.63;;
13801;SDS011;6972;51.518;6.918;2023-06-01T13:59:28;11.20;;;5.97;;
13801;SDS011;6972;51.518;6.918;2023-06-01T14:01:59;11.48;;;5.45;;
13801;SDS011;6972;51.518;6.918;2023-06-01T14:04:25;10.40;;;6.10;;
13801;SDS011;6972;51.518;6.918;2023-06-01T14:06:51;13.73;;;6.03;;
13801;SDS011;6972;51.518;6.918;2023-06-01T14:09:20;12.10;;;5.60;;
13801;SDS011;6972;51.518;6.918;2023-06-01T14:11:46;9.23;;;4.82;;
13801;SDS011;6972;51.518;6.918;2023-06-01T14:14:12;12.10;;;5.50;;
13801;SDS011;6972;51.518;6.918;2023-06-01T14:16:38;9.70;;;5.78;;
13801;SDS011;6972;51.518;6.918;2023-06-01T14:19:04;9.77;;;5.82;;
13801;SDS011;6972;51.518;6.918;2023-06-01T14:21:30;11.73;;;5.50;;
13801;SDS011;6972;51.518;6.918;2023-06-01T14:23:57;9.43;;;5.57;;
13801;SDS011;6972;51.518;6.918;2023-06-01T14:26:23;11.07;;;5.53;;
13801;SDS011;6972;51.518;6.918;2023-06-01T14:28:50;18.73;;;5.65;;
13801;SDS011;6972;51.518;6.918;2023-06-01T14:31:16;10.27;;;6.20;;
13801;SDS011;6972;51.518;6.918;2023-06-01T14:33:45;11.75;;;6.97;;
13801;SDS011;6972;51.518;6.918;2023-06-01T14:36:11;11.85;;;5.72;;
13801;SDS011;6972;51.518;6.918;2023-06-01T14:38:37;11.65;;;5.47;;
13801;SDS011;6972;51.518;6.918;2023-06-01T14:41:03;10.77;;;5.82;;
13801;SDS011;6972;51.518;6.918;2023-06-01T14:43:30;10.57;;;6.03;;
13801;SDS011;6972;51.518;6.918;2023-06-01T14:45:56;11.70;;;6.28;;
13801;SDS011;6972;51.518;6.918;2023-06-01T14:48:22;13.82;;;5.68;;
13801;SDS011;6972;51.518;6.918;2023-06-01T14:50:48;15.00;;;5.88;;
13801;SDS011;6972;51.518;6.918;2023-06-01T14:53:14;12.65;;;5.40;;
13801;SDS011;6972;51.518;6.918;2023-06-01T14:55:40;9.55;;;5.88;;
13801;SDS011;6972;51.518;6.918;2023-06-01T14:58:06;10.43;;;5.72;;
13801;SDS011;6972;51.518;6.918;2023-06-01T15:00:32;8.10;;;5.68;;
13801;SDS011;6972;51.518;6.918;2023-06-01T15:02:58;10.00;;;5.68;;
13801;SDS011;6972;51.518;6.918;2023-06-01T15:05:24;13.23;;;5.47;;
13801;SDS011;6972;51.518;6.918;2023-06-01T15:07:50;6.75;;;5.07;;
13801;SDS011;6972;51.518;6.918;2023-06-01T15:10:16;7.75;;;4.70;;
13801;SDS011;6972;51.518;6.918;2023-06-01T15:12:42;8.50;;;5.20;;
13801;SDS011;6972;51.518;6.918;2023-06-01T15:15:08;9.80;;;5.28;;
13801;SDS011;6972;51.518;6.918;2023-06-01T15:17:35;9.65;;;4.57;;
13801;SDS011;6972;51.518;6.918;2023-06-01T15:20:01;10.48;;;4.80;;
13801;SDS011;6972;51.518;6.918;2023-06-01T15:22:27;8.95;;;4.85;;
13801;SDS011;6972;51.518;6.918;2023-06-01T15:24:52;7.18;;;4.70;;
13801;SDS011;6972;51.518;6.918;2023-06-01T15:27:18;9.13;;;4.38;;
13801;SDS011;6972;51.518;6.918;2023-06-01T15:29:44;6.38;;;4.05;;
13801;SDS011;6972;51.518;6.918;2023-06-01T15:32:13;10.52;;;4.10;;
13801;SDS011;6972;51.518;6.918;2023-06-01T15:34:39;8.45;;;4.13;;
13801;SDS011;6972;51.518;6.918;2023-06-01T15:37:09;11.52;;;4.80;;
13801;SDS011;6972;51.518;6.918;2023-06-01T15:39:36;7.72;;;4.85;;